Seattle, Washington
Current Conditions -  °F | °C
As of 2:53 PM on Tuesday 21 Oct 2014 (Local Time) from KBFI Reporting Station
Light Rain Light Rain  
Wind Chill: 60°   Ceiling: 4800
Heat Index: 60°   Visibility: 10mi
Dew Point: 50°   Wind: 15mph
Humidity: 69%   Direction: 130°SE
Pressure: 29.91"   Gusts: NA
Location:  47.6°N, 122.32°W
Report Text: KBFI 212153Z 13013KT 10SM -RA SCT030 OVC048 16/10 A2991 RMK AO2 RAB39 SLP126 P0000 T01560100
Loading
Personal Weather Stations






























Interactive Weather Map
Tropical Storm Tracking
New forecast layout! Learn more

10-Day Weather Forecast

Advertisements
Track Severe Weather on mobile